Time;durP1;ratioP1;P1;durP2;ratioP2;P2;SDS_P1;SDS_P2;PMS_P1;PMS_P2;Temp;Humidity;BMP_temperature;BMP_pressure;BME280_temperature;BME280_humidity;BME280_pressure;Samples;Min_cycle;Max_cycle;Signal;HPM_P1;HPM_P2
2020/12/21 00:01:49;;;;;;;5.95;4.07;;;;;;;18.52;56.81;101831.94;4813844;29;20019;-72
2020/12/21 00:04:15;;;;;;;7.30;5.45;;;;;;;18.50;56.76;101829.28;4814713;29;20035;-72
2020/12/21 00:06:41;;;;;;;4.57;3.67;;;;;;;18.50;56.59;101826.69;4803190;29;20038;-72
2020/12/21 00:09:06;;;;;;;7.38;4.10;;;;;;;18.49;56.38;101821.41;4805450;29;20034;-72
2020/12/21 00:11:41;;;;;;;5.55;3.92;;;;;;;18.49;56.54;101827.53;4806221;29;20043;-72
2020/12/21 00:14:08;;;;;;;5.80;4.35;;;;;;;18.47;56.58;101818.78;4804473;29;20038;-72
2020/12/21 00:16:40;;;;;;;6.10;4.05;;;;;;;18.50;56.70;101828.41;4805898;29;20034;-72
2020/12/21 00:19:07;;;;;;;6.78;5.03;;;;;;;18.48;56.67;101824.91;4803792;29;20031;-72
2020/12/21 00:21:32;;;;;;;6.68;3.88;;;;;;;18.44;56.37;101810.88;4804809;29;20062;-72
2020/12/21 00:23:58;;;;;;;4.05;3.20;;;;;;;18.45;56.69;101820.50;4793510;29;20051;-72
2020/12/21 00:26:23;;;;;;;4.22;3.17;;;;;;;18.47;56.58;101817.91;4805992;29;20042;-71
2020/12/21 00:28:49;;;;;;;4.82;3.80;;;;;;;18.46;56.36;101821.38;4803520;29;20042;-72
2020/12/21 00:31:29;;;;;;;6.30;3.78;;;;;;;18.42;56.21;101806.50;4806029;29;20043;-72
2020/12/21 00:33:56;;;;;;;4.70;3.35;;;;;;;18.45;56.38;101819.63;4805537;29;20360;-72
2020/12/21 00:36:22;;;;;;;5.10;3.35;;;;;;;18.44;56.54;101810.00;4800234;29;20114;-72
2020/12/21 00:38:48;;;;;;;5.07;3.10;;;;;;;18.43;56.48;101803.03;4797336;29;20134;-72
2020/12/21 00:41:19;;;;;;;4.30;3.58;;;;;;;18.41;56.43;101808.25;4804430;29;20035;-72
2020/12/21 00:43:45;;;;;;;4.57;3.22;;;;;;;18.44;56.21;101807.38;4802679;29;20035;-72
2020/12/21 00:46:15;;;;;;;4.18;3.40;;;;;;;18.38;56.24;101800.34;4804266;29;20065;-72
2020/12/21 00:48:41;;;;;;;3.85;2.88;;;;;;;18.42;56.15;101809.13;4794553;29;20502;-72
2020/12/21 00:51:07;;;;;;;9.82;3.22;;;;;;;18.44;56.41;101803.03;4817934;29;20051;-72
2020/12/21 00:53:33;;;;;;;4.47;3.00;;;;;;;18.43;56.28;101805.66;4804925;29;20447;-72
2020/12/21 00:56:05;;;;;;;5.65;3.40;;;;;;;18.42;55.94;101804.78;4805593;29;20065;-72
2020/12/21 00:58:31;;;;;;;4.93;2.80;;;;;;;18.41;56.20;101808.25;4805675;29;20041;-72
2020/12/21 01:00:57;;;;;;;4.47;3.38;;;;;;;18.41;56.52;101802.13;4803285;29;20033;-72
2020/12/21 01:03:23;;;;;;;3.42;2.50;;;;;;;18.37;55.95;101789.88;4822869;29;20478;-72
2020/12/21 01:05:48;;;;;;;2.97;2.35;;;;;;;18.40;56.33;101800.38;4805167;29;20088;-72
2020/12/21 01:08:13;;;;;;;4.15;2.92;;;;;;;18.41;56.06;101795.16;4786629;29;20047;-72
2020/12/21 01:10:39;;;;;;;3.55;2.85;;;;;;;18.39;56.22;101796.88;4804358;29;20130;-72
2020/12/21 01:13:05;;;;;;;3.22;2.25;;;;;;;18.40;56.03;101800.38;4801161;29;20039;-72
2020/12/21 01:15:30;;;;;;;3.63;3.00;;;;;;;18.39;56.13;101809.09;4804824;29;20057;-72
2020/12/21 01:17:55;;;;;;;3.67;2.55;;;;;;;18.38;56.01;101796.84;4796897;29;20068;-72
2020/12/21 01:20:21;;;;;;;5.20;2.97;;;;;;;18.39;55.92;101803.84;4797904;29;20497;-72
2020/12/21 01:22:46;;;;;;;3.55;2.33;;;;;;;18.38;55.88;101802.97;4804083;29;20414;-72
2020/12/21 01:25:12;;;;;;;3.58;2.20;;;;;;;18.38;55.90;101805.59;4807227;29;20069;-72
2020/12/21 01:27:37;;;;;;;3.45;2.55;;;;;;;18.37;55.98;101801.22;4799675;29;20111;-72
2020/12/21 01:30:03;;;;;;;4.07;2.33;;;;;;;18.38;56.01;101799.47;4787096;29;20062;-72
2020/12/21 01:32:29;;;;;;;4.85;2.38;;;;;;;18.38;55.79;101799.47;4802165;29;20039;-72
2020/12/21 01:34:54;;;;;;;3.58;2.55;;;;;;;18.37;55.85;101800.34;4803368;29;20035;-72
2020/12/21 01:37:19;;;;;;;4.45;2.55;;;;;;;18.36;55.72;101802.06;4801387;29;20035;-72
2020/12/21 01:39:48;;;;;;;4.55;2.65;;;;;;;18.36;55.76;101802.06;4801200;29;20031;-72
2020/12/21 01:42:17;;;;;;;3.28;2.40;;;;;;;18.35;55.71;101807.28;4801898;29;20035;-72
2020/12/21 01:44:49;;;;;;;2.70;1.88;;;;;;;18.32;55.81;101808.13;4798885;29;20035;-72
2020/12/21 01:47:19;;;;;;;2.92;2.40;;;;;;;18.33;55.75;101809.88;4803140;29;20122;-72
2020/12/21 01:49:45;;;;;;;3.90;2.20;;;;;;;18.35;55.42;101812.53;4800746;29;20031;-72
2020/12/21 01:52:12;;;;;;;3.20;2.35;;;;;;;18.33;55.83;101814.25;4796655;29;20055;-72
2020/12/21 01:54:38;;;;;;;4.13;2.35;;;;;;;18.31;55.73;101811.59;4776971;30;20024;-72
2020/12/21 01:57:03;;;;;;;2.60;2.20;;;;;;;18.31;55.70;101808.09;4757682;29;20039;-72
2020/12/21 01:59:29;;;;;;;3.00;2.15;;;;;;;18.30;55.73;101812.50;4788038;29;20031;-72
2020/12/21 02:01:55;;;;;;;3.97;2.40;;;;;;;18.32;55.73;101816.00;4752718;30;20491;-72
2020/12/21 02:04:21;;;;;;;2.95;1.58;;;;;;;18.32;55.66;101817.72;4760226;30;20118;-72
2020/12/21 02:06:47;;;;;;;4.65;2.95;;;;;;;18.33;55.75;101819.47;4769991;29;20066;-72
2020/12/21 02:09:13;;;;;;;3.88;2.40;;;;;;;18.31;55.70;101821.19;4766957;29;20035;-72
2020/12/21 02:11:42;;;;;;;5.00;2.00;;;;;;;18.32;55.78;101826.47;4780275;30;20039;-72
2020/12/21 02:14:08;;;;;;;4.65;2.05;;;;;;;18.31;55.68;101824.69;4784320;29;20074;-69
2020/12/21 02:16:34;;;;;;;2.13;1.63;;;;;;;18.31;55.33;101822.09;4789389;29;20144;-72
2020/12/21 02:19:00;;;;;;;3.50;1.65;;;;;;;18.32;55.28;101825.56;4792264;29;20068;-72
2020/12/21 02:21:25;;;;;;;5.18;2.13;;;;;;;18.30;55.48;101814.25;4787976;29;20115;-72
2020/12/21 02:23:51;;;;;;;3.28;2.05;;;;;;;18.28;55.29;101803.75;4794163;29;20031;-72
2020/12/21 02:26:16;;;;;;;4.03;1.85;;;;;;;18.29;55.44;101807.25;4776386;29;20570;-72
2020/12/21 02:28:41;;;;;;;4.50;2.03;;;;;;;18.31;55.29;101797.63;4780674;30;20040;-72
2020/12/21 02:31:07;;;;;;;2.20;1.70;;;;;;;18.27;55.18;101801.97;4778940;30;20046;-72
2020/12/21 02:33:33;;;;;;;2.47;1.40;;;;;;;18.29;55.26;101808.13;4758477;30;20084;-72
2020/12/21 02:35:58;;;;;;;3.60;1.92;;;;;;;18.25;55.54;101802.81;4795984;29;20042;-72
2020/12/21 02:38:24;;;;;;;3.05;1.83;;;;;;;18.28;55.38;101810.72;4785832;29;20411;-72
2020/12/21 02:40:49;;;;;;;4.13;1.88;;;;;;;18.26;55.48;101807.19;4784957;29;20172;-72
2020/12/21 02:43:15;;;;;;;3.90;2.55;;;;;;;18.27;55.35;101811.56;4791080;29;20031;-72
2020/12/21 02:45:41;;;;;;;2.90;2.05;;;;;;;18.25;55.34;101810.69;4798519;29;20432;-72
2020/12/21 02:48:06;;;;;;;3.65;2.25;;;;;;;18.27;55.35;101808.97;4773943;29;20035;-72
2020/12/21 02:50:32;;;;;;;2.95;1.80;;;;;;;18.26;55.45;101805.47;4790711;29;20063;-72
2020/12/21 02:52:57;;;;;;;3.50;1.80;;;;;;;18.25;55.57;101800.19;4803834;29;20402;-71
2020/12/21 02:55:23;;;;;;;2.75;1.95;;;;;;;18.25;55.42;101805.44;4801977;29;20117;-72
2020/12/21 02:57:48;;;;;;;3.65;1.80;;;;;;;18.24;55.24;101799.31;4802357;29;20031;-72
2020/12/21 03:00:14;;;;;;;3.03;1.55;;;;;;;18.21;55.19;101796.66;4810045;29;20085;-71
2020/12/21 03:02:40;;;;;;;2.20;1.65;;;;;;;18.19;55.20;101801.88;4805093;29;20043;-71
2020/12/21 03:05:05;;;;;;;2.65;1.45;;;;;;;18.24;55.14;101803.69;4807699;29;20164;-71
2020/12/21 03:07:31;;;;;;;3.05;1.95;;;;;;;18.19;55.54;101798.38;4810778;29;20110;-71
2020/12/21 03:09:56;;;;;;;5.32;2.05;;;;;;;18.15;55.29;101784.41;4784778;29;20035;-71
2020/12/21 03:12:21;;;;;;;2.40;1.60;;;;;;;18.21;55.38;101796.66;4805670;29;20387;-71
2020/12/21 03:14:47;;;;;;;3.08;2.15;;;;;;;18.20;55.23;101798.41;4799040;29;20135;-71
2020/12/21 03:17:12;;;;;;;3.40;1.63;;;;;;;18.20;55.26;101792.28;4803230;29;20080;-71
2020/12/21 03:19:37;;;;;;;2.42;1.70;;;;;;;18.20;55.22;101803.63;4806259;29;20126;-72
2020/12/21 03:22:03;;;;;;;4.40;1.58;;;;;;;18.14;55.44;101794.84;4794718;29;20035;-71
2020/12/21 03:24:28;;;;;;;3.15;1.50;;;;;;;18.19;55.01;101801.00;4814051;29;20043;-71
2020/12/21 03:26:53;;;;;;;3.13;1.77;;;;;;;18.17;55.12;101802.75;4806326;29;20042;-71
2020/12/21 03:29:19;;;;;;;3.90;2.00;;;;;;;18.20;55.10;101815.84;4803917;29;20039;-72
2020/12/21 03:31:44;;;;;;;5.25;1.92;;;;;;;18.19;55.24;101808.84;4786793;29;20114;-72
2020/12/21 03:34:16;;;;;;;2.42;1.70;;;;;;;18.16;55.16;101808.84;4795503;29;20043;-71
2020/12/21 03:36:42;;;;;;;3.50;1.60;;;;;;;18.17;55.04;101808.88;4803080;29;20475;-68
2020/12/21 03:39:07;;;;;;;3.17;1.95;;;;;;;18.17;55.07;101814.09;4794757;29;20046;-69
2020/12/21 03:41:33;;;;;;;2.03;1.45;;;;;;;18.16;55.05;101806.22;4801356;29;20111;-68
2020/12/21 03:43:58;;;;;;;4.18;1.60;;;;;;;18.16;54.94;101801.88;4799454;29;20031;-69
2020/12/21 03:46:24;;;;;;;1.92;1.30;;;;;;;18.13;55.11;101793.97;4802189;29;20428;-68
2020/12/21 03:48:49;;;;;;;2.75;1.83;;;;;;;18.15;55.06;101797.50;4781160;29;20031;-69
2020/12/21 03:51:15;;;;;;;2.95;1.65;;;;;;;18.14;55.40;101784.38;4788852;29;20118;-68
2020/12/21 03:53:40;;;;;;;3.28;1.98;;;;;;;18.14;55.06;101785.25;4773101;29;20074;-68
2020/12/21 03:56:05;;;;;;;2.63;1.65;;;;;;;18.14;55.06;101780.03;4801070;29;20062;-68
2020/12/21 03:58:31;;;;;;;2.20;1.42;;;;;;;18.13;55.06;101775.66;4784604;29;20390;-68
2020/12/21 04:00:56;;;;;;;2.45;1.60;;;;;;;18.13;54.90;101783.50;4800284;29;20041;-69
2020/12/21 04:03:21;;;;;;;2.65;1.63;;;;;;;18.15;55.19;101781.78;4798650;29;20039;-68
2020/12/21 04:05:50;;;;;;;2.55;1.63;;;;;;;18.12;55.02;101773.88;4815115;29;20031;-67
2020/12/21 04:08:15;;;;;;;2.58;1.65;;;;;;;18.11;55.17;101777.38;4796282;29;20049;-68
2020/12/21 04:10:43;;;;;;;2.25;1.67;;;;;;;18.13;55.08;101774.78;4799868;29;20035;-68
2020/12/21 04:13:09;;;;;;;2.83;1.67;;;;;;;18.08;55.13;101769.47;4813980;29;20242;-68
2020/12/21 04:15:34;;;;;;;2.85;1.30;;;;;;;18.09;55.38;101771.22;4786838;29;20542;-68
2020/12/21 04:18:00;;;;;;;3.40;2.10;;;;;;;18.10;55.40;101764.25;4786846;29;20045;-71
2020/12/21 04:20:25;;;;;;;2.17;1.25;;;;;;;18.10;55.31;101765.13;4787840;29;20125;-71
2020/12/21 04:22:50;;;;;;;2.33;1.85;;;;;;;18.10;55.30;101766.88;4812135;29;20041;-68
2020/12/21 04:25:16;;;;;;;2.42;1.35;;;;;;;18.09;55.29;101760.75;4798328;29;20444;-68
2020/12/21 04:27:41;;;;;;;3.78;2.75;;;;;;;18.06;55.19;101747.63;4798975;29;20497;-68
2020/12/21 04:30:07;;;;;;;3.42;1.95;;;;;;;18.08;55.25;101748.53;4799228;29;20055;-69
2020/12/21 04:32:32;;;;;;;1.83;1.15;;;;;;;18.07;55.28;101743.28;4803994;29;20042;-69
2020/12/21 04:34:57;;;;;;;1.75;1.00;;;;;;;18.08;55.33;101747.66;4803348;29;20041;-68
2020/12/21 04:37:23;;;;;;;2.78;1.27;;;;;;;18.06;55.32;101749.38;4803374;29;20049;-71
2020/12/21 04:39:48;;;;;;;2.28;1.27;;;;;;;18.04;55.48;101743.25;4809169;29;20062;-71
2020/12/21 04:42:13;;;;;;;2.08;1.48;;;;;;;18.04;55.14;101746.75;4806278;29;20063;-71
2020/12/21 04:44:40;;;;;;;13.35;2.30;;;;;;;18.05;55.48;101739.75;4804200;29;20067;-72
2020/12/21 04:47:07;;;;;;;1.50;1.10;;;;;;;18.00;55.24;101742.34;4817288;29;20047;-71
2020/12/21 04:49:34;;;;;;;2.40;1.40;;;;;;;18.04;55.35;101738.03;4800960;29;20080;-72
2020/12/21 04:52:06;;;;;;;4.38;1.55;;;;;;;18.01;55.30;101736.25;4809375;29;20051;-71
2020/12/21 04:54:32;;;;;;;2.95;2.08;;;;;;;18.03;55.40;101744.13;4815330;29;20150;-71
2020/12/21 04:56:58;;;;;;;2.42;1.80;;;;;;;18.02;55.27;101740.63;4805925;29;20110;-71
2020/12/21 04:59:23;;;;;;;2.63;1.40;;;;;;;18.04;55.20;101738.03;4804258;29;20054;-71
2020/12/21 05:01:49;;;;;;;2.58;1.52;;;;;;;18.01;55.23;101733.63;4803760;29;20088;-71
2020/12/21 05:04:14;;;;;;;2.42;1.30;;;;;;;17.98;55.45;101725.75;4797763;29;20031;-71
2020/12/21 05:06:49;;;;;;;1.70;1.35;;;;;;;17.99;55.20;101719.66;4804128;29;20070;-71
2020/12/21 05:09:14;;;;;;;5.88;1.98;;;;;;;18.00;55.23;101723.16;4804524;29;20536;-71
2020/12/21 05:11:51;;;;;;;2.28;1.25;;;;;;;18.01;55.30;101714.44;4787961;29;20026;-71
2020/12/21 05:14:17;;;;;;;3.13;1.58;;;;;;;18.00;55.15;101721.41;4804140;29;20038;-71
2020/12/21 05:16:42;;;;;;;1.80;1.15;;;;;;;17.99;55.28;101718.78;4793839;29;20476;-71
2020/12/21 05:19:07;;;;;;;2.20;1.40;;;;;;;18.01;55.25;101717.06;4786511;29;20035;-72
2020/12/21 05:21:34;;;;;;;2.20;1.25;;;;;;;17.96;55.10;101711.75;4799763;29;20461;-71
2020/12/21 05:24:02;;;;;;;2.20;1.15;;;;;;;17.98;55.19;101706.53;4770049;29;20038;-71
2020/12/21 05:26:33;;;;;;;3.58;1.50;;;;;;;17.97;55.10;101708.28;4797968;29;20118;-71
2020/12/21 05:29:00;;;;;;;3.05;1.35;;;;;;;17.96;55.00;101711.75;4805752;29;20087;-71
2020/12/21 05:31:26;;;;;;;3.45;1.30;;;;;;;17.97;55.12;101716.13;4801239;29;20034;-71
2020/12/21 05:33:52;;;;;;;2.45;1.23;;;;;;;17.97;55.27;101717.88;4804291;29;20122;-71
2020/12/21 05:36:22;;;;;;;2.90;1.23;;;;;;;17.98;55.19;101714.41;4802416;29;20110;-71
2020/12/21 05:39:02;;;;;;;5.63;1.70;;;;;;;18.00;55.10;101720.53;4814506;29;20034;-72
2020/12/21 05:41:28;;;;;;;2.80;1.33;;;;;;;18.00;55.04;101708.31;4804964;29;20063;-72
2020/12/21 05:43:54;;;;;;;3.15;1.65;;;;;;;18.06;55.10;101705.75;4789676;29;20497;-74
2020/12/21 05:46:23;;;;;;;1.55;1.20;;;;;;;18.21;54.63;101713.75;4802589;29;20038;-76
2020/12/21 05:48:52;;;;;;;4.70;1.50;;;;;;;18.30;54.20;101715.63;4806517;29;20027;-72
2020/12/21 05:51:33;;;;;;;3.67;1.25;;;;;;;18.31;54.21;101712.09;4820203;29;20026;-72
2020/12/21 05:54:01;;;;;;;1.90;0.95;;;;;;;18.38;54.02;101716.56;4797298;29;20061;-72
2020/12/21 05:56:28;;;;;;;1.98;1.10;;;;;;;18.48;54.00;101712.28;4802329;29;20070;-71
2020/12/21 05:58:54;;;;;;;2.30;1.25;;;;;;;18.46;54.07;101717.50;4803151;29;20037;-71
2020/12/21 06:01:20;;;;;;;1.13;0.80;;;;;;;18.45;54.57;101710.50;4806614;29;20039;-71
2020/12/21 06:03:54;;;;;;;1.65;0.85;;;;;;;18.52;53.92;101707.09;4806091;29;20042;-75
2020/12/21 06:06:21;;;;;;;2.35;1.40;;;;;;;18.60;53.74;101714.16;4797722;29;20031;-72
2020/12/21 06:08:50;;;;;;;3.58;1.25;;;;;;;18.55;53.74;101712.34;4806133;29;20117;-73
2020/12/21 06:11:24;;;;;;;1.58;1.00;;;;;;;18.51;54.06;101710.56;4810918;29;20034;-73
2020/12/21 06:13:55;;;;;;;3.20;1.20;;;;;;;18.55;54.24;101712.34;4801483;29;20035;-73
2020/12/21 06:16:21;;;;;;;3.00;1.08;;;;;;;18.62;53.84;101697.59;4803766;29;20547;-72
2020/12/21 06:19:00;;;;;;;3.00;1.30;;;;;;;18.62;53.96;101701.94;4803472;29;20054;-73
2020/12/21 06:21:30;;;;;;;2.10;1.10;;;;;;;18.55;54.02;101696.66;4785811;29;20030;-68
2020/12/21 06:23:56;;;;;;;1.83;1.17;;;;;;;18.60;53.76;101691.44;4788406;29;20043;-72
2020/12/21 06:26:37;;;;;;;4.10;1.73;;;;;;;18.62;54.19;101684.50;4805973;29;20065;-72
2020/12/21 06:29:10;;;;;;;5.05;1.52;;;;;;;18.56;54.20;101687.03;4808184;29;20045;-72
2020/12/21 06:31:41;;;;;;;6.55;1.40;;;;;;;18.53;54.32;101679.16;4803347;29;20034;-72
2020/12/21 06:34:09;;;;;;;3.97;1.40;;;;;;;18.59;54.20;101687.06;4803227;29;20052;-68
2020/12/21 06:36:35;;;;;;;4.80;1.67;;;;;;;18.59;54.32;101694.06;4806461;29;20034;-67
2020/12/21 06:39:01;;;;;;;3.40;2.00;;;;;;;18.54;54.41;101688.75;4791005;29;20067;-68
2020/12/21 06:41:27;;;;;;;7.07;1.70;;;;;;;18.64;54.47;101702.84;4807746;29;20486;-68
2020/12/21 06:44:05;;;;;;;3.15;1.52;;;;;;;18.64;54.14;101697.59;4803810;29;20039;-68
2020/12/21 06:46:32;;;;;;;12.50;2.10;;;;;;;18.58;54.32;101703.66;4803249;29;20031;-68
2020/12/21 06:49:12;;;;;;;3.13;1.60;;;;;;;18.62;54.50;101697.59;4815759;29;20421;-68
2020/12/21 06:51:46;;;;;;;6.07;1.55;;;;;;;18.65;54.34;101692.38;4806087;29;20091;-68
2020/12/21 06:54:13;;;;;;;2.20;1.30;;;;;;;18.60;54.43;101688.84;4807162;29;20058;-68
2020/12/21 06:56:40;;;;;;;7.13;2.13;;;;;;;18.57;54.34;101680.91;4806320;29;20034;-69
2020/12/21 06:59:32;;;;;;;5.53;1.50;;;;;;;18.63;54.33;101678.38;4807665;29;20034;-73
2020/12/21 07:01:57;;;;;;;4.95;1.60;;;;;;;18.66;54.54;101680.16;4805853;29;20051;-72
2020/12/21 07:04:29;;;;;;;14.73;5.97;;;;;;;18.71;54.52;101684.53;4798912;29;21912;-74
2020/12/21 07:07:03;;;;;;;16.25;10.38;;;;;;;18.81;54.50;101673.28;4808309;29;20066;-73
2020/12/21 07:09:35;;;;;;;;;;;;;;;18.80;54.34;101674.16;4802066;29;20079;-70
2020/12/21 07:12:03;;;;;;;12.05;8.07;;;;;;;18.75;54.41;101669.75;4801809;29;19936;-71
2020/12/21 07:14:30;;;;;;;10.55;7.40;;;;;;;18.77;54.38;101671.50;4803809;29;20030;-73
2020/12/21 07:17:10;;;;;;;10.00;7.68;;;;;;;18.72;54.54;101675.81;4791536;29;20049;-73
2020/12/21 07:19:38;;;;;;;12.45;6.18;;;;;;;18.74;54.57;101673.22;4807147;29;20121;-73
2020/12/21 07:22:05;;;;;;;7.15;5.15;;;;;;;18.74;54.29;101663.63;4804802;29;20031;-71
2020/12/21 07:24:30;;;;;;;8.02;5.40;;;;;;;18.79;54.30;101667.16;4805138;29;20442;-73
2020/12/21 07:26:56;;;;;;;8.07;5.03;;;;;;;18.75;54.58;101662.75;4796042;29;20077;-73
2020/12/21 07:29:21;;;;;;;7.13;5.40;;;;;;;18.82;54.03;101668.94;4809951;29;20067;-71
2020/12/21 07:31:47;;;;;;;6.35;4.82;;;;;;;18.80;54.26;101661.06;4806150;29;20030;-71
2020/12/21 07:34:12;;;;;;;7.82;5.13;;;;;;;18.79;54.17;101645.31;4798620;29;20046;-71
2020/12/21 07:36:38;;;;;;;7.47;5.18;;;;;;;18.82;54.50;101650.59;4789555;29;20035;-71
2020/12/21 07:39:12;;;;;;;4.80;3.85;;;;;;;18.86;54.21;101642.72;4788697;29;20038;-71
2020/12/21 07:41:51;;;;;;;6.00;4.13;;;;;;;18.78;54.26;101636.56;4802849;29;20088;-71
2020/12/21 07:44:26;;;;;;;10.88;4.78;;;;;;;18.81;54.35;101635.72;4818266;29;20059;-70
2020/12/21 07:47:00;;;;;;;7.45;4.40;;;;;;;18.89;53.91;101639.25;4805828;29;20114;-71
2020/12/21 07:49:26;;;;;;;6.28;4.32;;;;;;;18.86;54.27;101650.59;4805855;29;20117;-71
2020/12/21 07:51:58;;;;;;;6.45;3.60;;;;;;;18.84;54.13;101639.22;4806555;29;20125;-70
2020/12/21 07:54:25;;;;;;;4.68;3.83;;;;;;;18.87;53.99;101623.53;4804156;29;20411;-70
2020/12/21 07:57:01;;;;;;;5.05;3.60;;;;;;;18.87;53.96;101630.50;4804881;29;20038;-70
2020/12/21 07:59:26;;;;;;;5.75;3.85;;;;;;;18.86;53.99;101624.38;4803928;29;20513;-71
2020/12/21 08:01:59;;;;;;;5.60;3.97;;;;;;;18.89;54.05;101637.50;4803708;29;20031;-71
2020/12/21 08:04:26;;;;;;;5.30;3.40;;;;;;;18.92;54.06;101639.28;4805301;29;20033;-71
2020/12/21 08:06:52;;;;;;;4.90;3.13;;;;;;;18.89;54.10;101628.78;4804824;29;20105;-71
2020/12/21 08:09:18;;;;;;;4.30;3.17;;;;;;;18.93;54.00;101625.31;4788572;29;20115;-70
2020/12/21 08:11:44;;;;;;;4.03;2.83;;;;;;;18.92;54.02;101627.06;4805118;29;20034;-70
2020/12/21 08:14:16;;;;;;;8.40;3.00;;;;;;;18.94;53.89;101627.06;4804896;29;20042;-73
2020/12/21 08:16:41;;;;;;;5.43;3.22;;;;;;;18.96;53.76;101619.19;4788878;29;20380;-72
2020/12/21 08:19:13;;;;;;;4.35;2.92;;;;;;;18.97;53.92;101616.56;4797370;29;20056;-70
2020/12/21 08:21:41;;;;;;;3.42;2.83;;;;;;;18.95;53.99;101615.72;4814802;29;20031;-69
2020/12/21 08:24:09;;;;;;;3.88;3.03;;;;;;;18.97;53.75;101608.72;4804845;29;20046;-69
2020/12/21 08:26:36;;;;;;;4.85;2.83;;;;;;;19.01;53.82;101609.63;4805757;29;20027;-70
2020/12/21 08:29:03;;;;;;;5.55;3.38;;;;;;;18.92;53.89;101598.22;4801166;29;20516;-70
2020/12/21 08:31:29;;;;;;;3.33;2.70;;;;;;;18.95;53.93;101599.13;4803913;29;20027;-70
2020/12/21 08:34:06;;;;;;;4.10;2.72;;;;;;;19.00;53.97;101600.00;4801486;29;20037;-70
2020/12/21 08:36:36;;;;;;;3.95;3.50;;;;;;;18.98;53.99;101615.72;4804708;29;20066;-69
2020/12/21 08:39:13;;;;;;;4.30;2.63;;;;;;;18.97;53.89;101602.59;4804497;29;20066;-70
2020/12/21 08:41:44;;;;;;;3.33;2.50;;;;;;;19.05;53.72;101599.16;4802383;29;20081;-70
2020/12/21 08:44:20;;;;;;;3.60;2.65;;;;;;;19.03;53.70;101598.28;4818105;29;20394;-70
2020/12/21 08:46:55;;;;;;;4.57;3.13;;;;;;;19.01;53.84;101593.88;4804667;29;20558;-70
2020/12/21 08:49:23;;;;;;;5.50;2.95;;;;;;;19.05;53.73;101588.69;4804722;29;20030;-70
2020/12/21 08:51:49;;;;;;;4.25;3.20;;;;;;;19.03;53.63;101572.06;4803971;29;20034;-71
2020/12/21 08:54:15;;;;;;;3.83;2.83;;;;;;;19.02;53.81;101564.19;4797698;29;20041;-73
2020/12/21 08:56:45;;;;;;;3.92;2.38;;;;;;;19.05;53.75;101557.22;4799866;29;20047;-73
2020/12/21 08:59:10;;;;;;;4.07;2.50;;;;;;;19.07;53.69;101554.63;4804747;29;20035;-73
2020/12/21 09:01:39;;;;;;;4.32;3.05;;;;;;;19.02;53.49;101554.59;4804906;29;20550;-73
2020/12/21 09:04:04;;;;;;;2.88;2.58;;;;;;;19.06;53.61;101547.63;4802307;29;20047;-72
2020/12/21 09:06:30;;;;;;;2.58;2.15;;;;;;;19.12;53.48;101550.25;4804679;29;20117;-73
2020/12/21 09:08:56;;;;;;;3.67;2.20;;;;;;;19.08;53.38;101553.75;4802417;29;20071;-73
2020/12/21 09:11:21;;;;;;;4.70;2.67;;;;;;;19.09;53.60;101555.47;4804888;29;20037;-73
2020/12/21 09:13:48;;;;;;;3.40;2.60;;;;;;;19.09;53.57;101558.97;4804187;29;20039;-73
2020/12/21 09:16:22;;;;;;;3.15;1.83;;;;;;;19.03;53.45;101542.34;4802414;29;20058;-73
2020/12/21 09:18:47;;;;;;;2.78;2.10;;;;;;;19.07;53.55;101552.88;4800942;29;20488;-73
2020/12/21 09:21:21;;;;;;;2.70;2.13;;;;;;;19.11;53.51;101553.72;4801960;29;20114;-72
2020/12/21 09:23:47;;;;;;;4.40;2.70;;;;;;;19.08;53.42;101545.88;4800483;29;20031;-73
2020/12/21 09:26:12;;;;;;;2.83;2.08;;;;;;;19.10;53.64;101547.59;4771645;29;20072;-72
2020/12/21 09:28:38;;;;;;;3.70;2.90;;;;;;;19.11;53.61;101548.50;4811873;29;20121;-72
2020/12/21 09:31:03;;;;;;;3.47;2.95;;;;;;;19.09;53.33;101548.47;4804411;29;20070;-72
2020/12/21 09:33:28;;;;;;;3.10;1.95;;;;;;;19.10;53.42;101549.34;4788841;29;20109;-72
2020/12/21 09:35:54;;;;;;;3.33;2.33;;;;;;;19.07;53.55;101537.13;4802475;29;20043;-72
2020/12/21 09:38:19;;;;;;;3.90;2.15;;;;;;;19.11;53.45;101538.88;4805328;29;20690;-72
2020/12/21 09:40:45;;;;;;;3.00;2.50;;;;;;;19.09;53.51;101537.13;4802693;29;20039;-72
2020/12/21 09:43:10;;;;;;;2.33;1.88;;;;;;;19.12;53.44;101532.75;4803786;29;20050;-72
2020/12/21 09:45:36;;;;;;;3.10;1.83;;;;;;;19.16;53.26;101528.41;4804052;29;20039;-72
2020/12/21 09:48:01;;;;;;;3.65;2.50;;;;;;;19.19;53.40;101512.72;4804356;29;20039;-72
2020/12/21 09:50:27;;;;;;;15.75;5.38;;;;;;;19.17;53.38;101511.81;4797703;29;20031;-73
2020/12/21 09:52:52;;;;;;;7.15;3.20;;;;;;;19.20;53.45;101503.97;4782019;29;20414;-73
2020/12/21 09:55:18;;;;;;;5.35;3.08;;;;;;;19.14;53.39;101510.06;4804246;29;20471;-73
2020/12/21 09:57:43;;;;;;;5.80;2.78;;;;;;;19.12;53.27;101516.16;4802594;29;20481;-73
2020/12/21 10:00:08;;;;;;;6.63;3.10;;;;;;;19.14;53.54;101509.19;4796884;29;20095;-73
2020/12/21 10:02:34;;;;;;;7.10;3.22;;;;;;;19.13;53.18;101502.19;4795430;29;20031;-73
2020/12/21 10:04:59;;;;;;;4.35;2.58;;;;;;;19.11;53.38;101496.94;4818135;29;20046;-73
2020/12/21 10:07:24;;;;;;;5.97;2.67;;;;;;;19.15;53.45;101505.69;4775171;29;20035;-73
2020/12/21 10:09:50;;;;;;;7.95;2.92;;;;;;;19.17;53.22;101504.84;4801586;29;20053;-73
2020/12/21 10:12:15;;;;;;;3.95;2.15;;;;;;;19.16;53.32;101494.34;4802469;29;20069;-73
2020/12/21 10:14:43;;;;;;;3.05;2.20;;;;;;;19.13;53.56;101482.09;4800432;29;20550;-73
2020/12/21 10:17:09;;;;;;;4.57;2.15;;;;;;;19.17;53.22;101473.38;4772434;29;20038;-73
2020/12/21 10:19:34;;;;;;;3.53;1.92;;;;;;;19.13;53.22;101461.13;4801499;29;20043;-73
2020/12/21 10:21:59;;;;;;;3.58;2.30;;;;;;;19.15;53.22;101468.97;4801526;29;20042;-73
2020/12/21 10:24:25;;;;;;;3.53;2.15;;;;;;;19.19;53.28;101469.00;4789510;29;20130;-73
2020/12/21 10:26:50;;;;;;;3.83;2.72;;;;;;;19.18;53.26;101446.28;4803508;29;20149;-72
2020/12/21 10:29:15;;;;;;;5.75;2.40;;;;;;;19.16;53.16;101447.13;4799620;29;20031;-72
2020/12/21 10:31:41;;;;;;;3.97;2.10;;;;;;;19.17;53.22;101430.53;4806075;29;20042;-72
2020/12/21 10:34:06;;;;;;;6.85;2.45;;;;;;;19.18;53.20;101427.06;4774801;29;20084;-71
2020/12/21 10:36:31;;;;;;;2.55;1.77;;;;;;;19.17;53.37;101423.56;4810429;29;20035;-70
2020/12/21 10:38:57;;;;;;;2.97;2.13;;;;;;;19.21;53.32;101406.09;4807663;29;20046;-70
2020/12/21 10:41:22;;;;;;;3.95;2.22;;;;;;;19.27;53.25;101411.31;4803813;29;20378;-71
2020/12/21 10:43:48;;;;;;;4.30;2.05;;;;;;;19.32;53.10;101408.72;4811104;29;20037;-72
2020/12/21 10:46:19;;;;;;;3.10;1.90;;;;;;;19.31;52.96;101401.72;4806673;29;20050;-72
2020/12/21 10:48:44;;;;;;;4.97;2.33;;;;;;;19.34;53.27;101397.34;4812039;29;20135;-72
2020/12/21 10:51:09;;;;;;;2.42;1.52;;;;;;;19.34;53.04;101402.59;4804729;29;20126;-72
2020/12/21 10:53:35;;;;;;;3.22;1.60;;;;;;;19.30;53.08;101389.47;4806753;29;20414;-75
2020/12/21 10:56:00;;;;;;;2.95;1.73;;;;;;;19.34;53.21;101379.00;4795478;29;20091;-71
2020/12/21 10:58:25;;;;;;;4.60;1.77;;;;;;;19.34;53.25;101373.75;4809114;29;20102;-73
2020/12/21 11:00:51;;;;;;;3.45;1.80;;;;;;;19.28;53.07;101371.13;4815561;29;20437;-72
2020/12/21 11:03:18;;;;;;;2.03;1.40;;;;;;;19.27;53.01;101367.63;4805048;29;20418;-72
2020/12/21 11:05:44;;;;;;;3.35;2.03;;;;;;;19.26;53.48;101359.75;4801183;29;20114;-72
2020/12/21 11:08:09;;;;;;;4.35;1.80;;;;;;;19.24;53.59;101359.75;4822098;29;20450;-72
2020/12/21 11:10:35;;;;;;;2.38;1.30;;;;;;;19.25;53.74;101361.50;4799512;29;20042;-71
2020/12/21 11:13:00;;;;;;;2.92;2.15;;;;;;;19.26;53.66;101344.88;4805060;29;20034;-72
2020/12/21 11:15:25;;;;;;;2.90;1.77;;;;;;;19.22;53.73;101337.88;4805250;29;20491;-70
2020/12/21 11:17:51;;;;;;;4.15;1.60;;;;;;;19.21;53.61;101330.06;4790305;29;20054;-69
2020/12/21 11:20:17;;;;;;;3.25;1.98;;;;;;;19.27;53.31;101330.03;4803905;29;20042;-69
2020/12/21 11:22:43;;;;;;;3.17;1.70;;;;;;;19.23;53.83;101318.66;4807597;29;20034;-69
2020/12/21 11:25:10;;;;;;;2.72;1.77;;;;;;;19.20;53.75;101310.81;4788406;29;20462;-70